sensor_id;sensor_type;location;lat;lon;timestamp;P1;durP1;ratioP1;P2;durP2;ratioP2
29908;SDS011;36247;51.952;6.146;2023-07-30T00:02:21;15.02;;;5.88;;
29908;SDS011;36247;51.952;6.146;2023-07-30T00:04:47;11.90;;;5.90;;
29908;SDS011;36247;51.952;6.146;2023-07-30T00:07:13;15.40;;;6.35;;
29908;SDS011;36247;51.952;6.146;2023-07-30T00:09:42;20.50;;;6.80;;
29908;SDS011;36247;51.952;6.146;2023-07-30T00:12:08;15.52;;;6.80;;
29908;SDS011;36247;51.952;6.146;2023-07-30T00:14:38;10.63;;;6.43;;
29908;SDS011;36247;51.952;6.146;2023-07-30T00:17:03;22.35;;;7.68;;
29908;SDS011;36247;51.952;6.146;2023-07-30T00:19:29;16.52;;;8.35;;
29908;SDS011;36247;51.952;6.146;2023-07-30T00:21:55;15.43;;;8.43;;
29908;SDS011;36247;51.952;6.146;2023-07-30T00:24:20;17.70;;;8.00;;
29908;SDS011;36247;51.952;6.146;2023-07-30T00:26:46;20.40;;;7.25;;
29908;SDS011;36247;51.952;6.146;2023-07-30T00:29:12;11.88;;;6.30;;
29908;SDS011;36247;51.952;6.146;2023-07-30T00:31:38;8.13;;;5.93;;
29908;SDS011;36247;51.952;6.146;2023-07-30T00:34:03;8.60;;;6.18;;
29908;SDS011;36247;51.952;6.146;2023-07-30T00:36:30;14.00;;;5.95;;
29908;SDS011;36247;51.952;6.146;2023-07-30T00:38:56;14.48;;;6.90;;
29908;SDS011;36247;51.952;6.146;2023-07-30T00:41:24;13.88;;;6.35;;
29908;SDS011;36247;51.952;6.146;2023-07-30T00:43:50;19.05;;;6.28;;
29908;SDS011;36247;51.952;6.146;2023-07-30T00:46:16;10.50;;;5.38;;
29908;SDS011;36247;51.952;6.146;2023-07-30T00:48:42;15.00;;;6.82;;
29908;SDS011;36247;51.952;6.146;2023-07-30T00:51:08;16.33;;;5.53;;
29908;SDS011;36247;51.952;6.146;2023-07-30T00:53:40;13.48;;;5.18;;
29908;SDS011;36247;51.952;6.146;2023-07-30T00:56:08;10.43;;;5.40;;
29908;SDS011;36247;51.952;6.146;2023-07-30T00:58:34;9.48;;;5.30;;
29908;SDS011;36247;51.952;6.146;2023-07-30T01:01:00;13.82;;;5.82;;
29908;SDS011;36247;51.952;6.146;2023-07-30T01:03:25;18.55;;;5.70;;
29908;SDS011;36247;51.952;6.146;2023-07-30T01:05:51;10.23;;;5.00;;
29908;SDS011;36247;51.952;6.146;2023-07-30T01:08:17;11.65;;;5.78;;
29908;SDS011;36247;51.952;6.146;2023-07-30T01:10:43;10.30;;;5.95;;
29908;SDS011;36247;51.952;6.146;2023-07-30T01:13:10;10.27;;;4.85;;
29908;SDS011;36247;51.952;6.146;2023-07-30T01:15:42;14.50;;;5.47;;
29908;SDS011;36247;51.952;6.146;2023-07-30T01:18:09;14.70;;;5.57;;
29908;SDS011;36247;51.952;6.146;2023-07-30T01:20:38;14.02;;;5.57;;
29908;SDS011;36247;51.952;6.146;2023-07-30T01:23:03;13.85;;;5.40;;
29908;SDS011;36247;51.952;6.146;2023-07-30T01:25:30;12.20;;;6.03;;
29908;SDS011;36247;51.952;6.146;2023-07-30T01:27:59;11.63;;;5.55;;
29908;SDS011;36247;51.952;6.146;2023-07-30T01:30:32;13.35;;;5.10;;
29908;SDS011;36247;51.952;6.146;2023-07-30T01:33:09;10.75;;;5.68;;
29908;SDS011;36247;51.952;6.146;2023-07-30T01:35:38;12.30;;;5.57;;
29908;SDS011;36247;51.952;6.146;2023-07-30T01:38:04;14.52;;;6.50;;
29908;SDS011;36247;51.952;6.146;2023-07-30T01:40:34;12.45;;;5.20;;
29908;SDS011;36247;51.952;6.146;2023-07-30T01:43:00;16.02;;;5.68;;
29908;SDS011;36247;51.952;6.146;2023-07-30T01:45:25;17.70;;;5.95;;
29908;SDS011;36247;51.952;6.146;2023-07-30T01:47:51;9.00;;;5.40;;
29908;SDS011;36247;51.952;6.146;2023-07-30T01:50:16;9.77;;;5.55;;
29908;SDS011;36247;51.952;6.146;2023-07-30T01:52:43;11.23;;;5.65;;
29908;SDS011;36247;51.952;6.146;2023-07-30T01:55:08;8.60;;;4.78;;
29908;SDS011;36247;51.952;6.146;2023-07-30T01:57:35;12.30;;;5.13;;
29908;SDS011;36247;51.952;6.146;2023-07-30T02:00:01;9.60;;;5.25;;
29908;SDS011;36247;51.952;6.146;2023-07-30T02:02:26;8.63;;;4.70;;
29908;SDS011;36247;51.952;6.146;2023-07-30T02:04:52;16.80;;;5.10;;
29908;SDS011;36247;51.952;6.146;2023-07-30T02:07:17;11.98;;;4.75;;
29908;SDS011;36247;51.952;6.146;2023-07-30T02:09:43;12.15;;;4.57;;
29908;SDS011;36247;51.952;6.146;2023-07-30T02:12:09;13.20;;;5.72;;
29908;SDS011;36247;51.952;6.146;2023-07-30T02:14:35;17.25;;;6.63;;
29908;SDS011;36247;51.952;6.146;2023-07-30T02:17:01;15.15;;;4.53;;
29908;SDS011;36247;51.952;6.146;2023-07-30T02:19:26;15.90;;;5.43;;
29908;SDS011;36247;51.952;6.146;2023-07-30T02:21:52;15.70;;;5.15;;
29908;SDS011;36247;51.952;6.146;2023-07-30T02:24:17;14.73;;;4.88;;
29908;SDS011;36247;51.952;6.146;2023-07-30T02:26:43;14.75;;;5.68;;
29908;SDS011;36247;51.952;6.146;2023-07-30T02:29:09;17.73;;;4.65;;
29908;SDS011;36247;51.952;6.146;2023-07-30T02:31:35;9.98;;;5.25;;
29908;SDS011;36247;51.952;6.146;2023-07-30T02:34:01;8.32;;;4.25;;
29908;SDS011;36247;51.952;6.146;2023-07-30T02:36:26;11.88;;;4.65;;
29908;SDS011;36247;51.952;6.146;2023-07-30T02:38:52;10.20;;;4.50;;
29908;SDS011;36247;51.952;6.146;2023-07-30T02:41:18;12.70;;;5.22;;
29908;SDS011;36247;51.952;6.146;2023-07-30T02:43:44;11.88;;;4.47;;
29908;SDS011;36247;51.952;6.146;2023-07-30T02:46:10;15.68;;;4.93;;
29908;SDS011;36247;51.952;6.146;2023-07-30T02:48:38;17.10;;;5.15;;
29908;SDS011;36247;51.952;6.146;2023-07-30T02:51:08;15.27;;;4.93;;
29908;SDS011;36247;51.952;6.146;2023-07-30T02:53:33;12.52;;;4.55;;
29908;SDS011;36247;51.952;6.146;2023-07-30T02:55:59;11.68;;;4.75;;
29908;SDS011;36247;51.952;6.146;2023-07-30T02:58:25;13.18;;;4.75;;
29908;SDS011;36247;51.952;6.146;2023-07-30T03:00:51;17.58;;;4.90;;
29908;SDS011;36247;51.952;6.146;2023-07-30T03:03:16;15.23;;;5.32;;
29908;SDS011;36247;51.952;6.146;2023-07-30T03:05:43;16.70;;;5.57;;
29908;SDS011;36247;51.952;6.146;2023-07-30T03:08:09;12.15;;;4.68;;
29908;SDS011;36247;51.952;6.146;2023-07-30T03:10:36;15.27;;;6.07;;
29908;SDS011;36247;51.952;6.146;2023-07-30T03:13:02;14.63;;;5.13;;
29908;SDS011;36247;51.952;6.146;2023-07-30T03:15:27;13.65;;;6.20;;
29908;SDS011;36247;51.952;6.146;2023-07-30T03:17:53;15.20;;;5.63;;
29908;SDS011;36247;51.952;6.146;2023-07-30T03:20:19;16.48;;;6.50;;
29908;SDS011;36247;51.952;6.146;2023-07-30T03:22:44;21.33;;;7.28;;
29908;SDS011;36247;51.952;6.146;2023-07-30T03:25:10;20.55;;;7.18;;
29908;SDS011;36247;51.952;6.146;2023-07-30T03:27:38;18.88;;;7.32;;
29908;SDS011;36247;51.952;6.146;2023-07-30T03:30:04;22.05;;;7.43;;
29908;SDS011;36247;51.952;6.146;2023-07-30T03:32:30;23.85;;;8.25;;
29908;SDS011;36247;51.952;6.146;2023-07-30T03:34:55;24.88;;;7.90;;
29908;SDS011;36247;51.952;6.146;2023-07-30T03:37:21;22.48;;;7.60;;
29908;SDS011;36247;51.952;6.146;2023-07-30T03:39:46;21.83;;;9.55;;
29908;SDS011;36247;51.952;6.146;2023-07-30T03:42:12;20.40;;;7.88;;
29908;SDS011;36247;51.952;6.146;2023-07-30T03:44:38;25.88;;;8.05;;
29908;SDS011;36247;51.952;6.146;2023-07-30T03:47:03;21.85;;;8.20;;
29908;SDS011;36247;51.952;6.146;2023-07-30T03:49:29;22.85;;;9.55;;
29908;SDS011;36247;51.952;6.146;2023-07-30T03:51:54;17.70;;;8.55;;
29908;SDS011;36247;51.952;6.146;2023-07-30T03:54:20;20.88;;;8.40;;
29908;SDS011;36247;51.952;6.146;2023-07-30T03:56:46;21.05;;;7.50;;
29908;SDS011;36247;51.952;6.146;2023-07-30T03:59:13;21.40;;;7.93;;
29908;SDS011;36247;51.952;6.146;2023-07-30T04:01:43;26.77;;;9.30;;
29908;SDS011;36247;51.952;6.146;2023-07-30T04:04:09;23.50;;;9.05;;
29908;SDS011;36247;51.952;6.146;2023-07-30T04:06:34;19.77;;;8.23;;
29908;SDS011;36247;51.952;6.146;2023-07-30T04:09:00;27.10;;;9.55;;
29908;SDS011;36247;51.952;6.146;2023-07-30T04:11:26;24.05;;;9.38;;
29908;SDS011;36247;51.952;6.146;2023-07-30T04:13:51;26.98;;;9.82;;
29908;SDS011;36247;51.952;6.146;2023-07-30T04:16:17;26.67;;;10.20;;
29908;SDS011;36247;51.952;6.146;2023-07-30T04:18:43;24.10;;;9.52;;
29908;SDS011;36247;51.952;6.146;2023-07-30T04:21:09;24.88;;;9.00;;
29908;SDS011;36247;51.952;6.146;2023-07-30T04:23:38;21.75;;;10.25;;
29908;SDS011;36247;51.952;6.146;2023-07-30T04:26:08;26.48;;;10.10;;
29908;SDS011;36247;51.952;6.146;2023-07-30T04:28:34;24.52;;;10.15;;
29908;SDS011;36247;51.952;6.146;2023-07-30T04:31:00;33.45;;;10.85;;
29908;SDS011;36247;51.952;6.146;2023-07-30T04:33:25;30.45;;;9.73;;
29908;SDS011;36247;51.952;6.146;2023-07-30T04:35:52;22.33;;;9.90;;
29908;SDS011;36247;51.952;6.146;2023-07-30T04:38:18;30.13;;;10.43;;
29908;SDS011;36247;51.952;6.146;2023-07-30T04:40:44;24.75;;;10.90;;
29908;SDS011;36247;51.952;6.146;2023-07-30T04:43:12;22.20;;;11.13;;
29908;SDS011;36247;51.952;6.146;2023-07-30T04:45:44;29.83;;;10.90;;
29908;SDS011;36247;51.952;6.146;2023-07-30T04:48:09;25.45;;;11.05;;
29908;SDS011;36247;51.952;6.146;2023-07-30T04:50:38;26.20;;;11.07;;
29908;SDS011;36247;51.952;6.146;2023-07-30T04:53:08;38.33;;;11.45;;
29908;SDS011;36247;51.952;6.146;2023-07-30T04:55:34;33.25;;;12.82;;
29908;SDS011;36247;51.952;6.146;2023-07-30T04:58:00;36.90;;;11.70;;
29908;SDS011;36247;51.952;6.146;2023-07-30T05:00:25;33.97;;;13.07;;
29908;SDS011;36247;51.952;6.146;2023-07-30T05:02:51;32.08;;;11.57;;
29908;SDS011;36247;51.952;6.146;2023-07-30T05:05:17;28.70;;;11.27;;
29908;SDS011;36247;51.952;6.146;2023-07-30T05:07:43;29.30;;;12.45;;
29908;SDS011;36247;51.952;6.146;2023-07-30T05:10:09;33.33;;;12.02;;
29908;SDS011;36247;51.952;6.146;2023-07-30T05:12:38;28.17;;;11.88;;
29908;SDS011;36247;51.952;6.146;2023-07-30T05:15:09;30.50;;;11.60;;
29908;SDS011;36247;51.952;6.146;2023-07-30T05:17:35;29.30;;;11.88;;
29908;SDS011;36247;51.952;6.146;2023-07-30T05:20:01;26.65;;;12.10;;
29908;SDS011;36247;51.952;6.146;2023-07-30T05:22:27;41.33;;;13.48;;
29908;SDS011;36247;51.952;6.146;2023-07-30T05:24:52;29.92;;;12.55;;
29908;SDS011;36247;51.952;6.146;2023-07-30T05:27:18;24.90;;;12.20;;
29908;SDS011;36247;51.952;6.146;2023-07-30T05:29:43;31.50;;;12.27;;
29908;SDS011;36247;51.952;6.146;2023-07-30T05:32:09;27.20;;;12.85;;
29908;SDS011;36247;51.952;6.146;2023-07-30T05:34:34;29.13;;;12.75;;
29908;SDS011;36247;51.952;6.146;2023-07-30T05:37:00;26.85;;;11.40;;
29908;SDS011;36247;51.952;6.146;2023-07-30T05:39:25;29.75;;;13.25;;
29908;SDS011;36247;51.952;6.146;2023-07-30T05:41:51;32.35;;;13.38;;
29908;SDS011;36247;51.952;6.146;2023-07-30T05:44:17;31.85;;;13.32;;
29908;SDS011;36247;51.952;6.146;2023-07-30T05:46:44;26.05;;;12.45;;
29908;SDS011;36247;51.952;6.146;2023-07-30T05:49:09;31.65;;;13.07;;
29908;SDS011;36247;51.952;6.146;2023-07-30T05:51:38;29.13;;;13.73;;
29908;SDS011;36247;51.952;6.146;2023-07-30T05:54:11;35.75;;;14.43;;
29908;SDS011;36247;51.952;6.146;2023-07-30T05:56:41;28.58;;;13.13;;
29908;SDS011;36247;51.952;6.146;2023-07-30T05:59:09;33.13;;;13.65;;
29908;SDS011;36247;51.952;6.146;2023-07-30T06:01:34;34.67;;;15.07;;
29908;SDS011;36247;51.952;6.146;2023-07-30T06:04:00;32.58;;;14.25;;
29908;SDS011;36247;51.952;6.146;2023-07-30T06:06:25;35.85;;;15.75;;
29908;SDS011;36247;51.952;6.146;2023-07-30T06:08:55;39.58;;;13.60;;
29908;SDS011;36247;51.952;6.146;2023-07-30T06:11:20;32.65;;;15.00;;
29908;SDS011;36247;51.952;6.146;2023-07-30T06:13:46;32.25;;;15.02;;
29908;SDS011;36247;51.952;6.146;2023-07-30T06:16:13;27.67;;;13.13;;
29908;SDS011;36247;51.952;6.146;2023-07-30T06:18:43;32.75;;;14.82;;
29908;SDS011;36247;51.952;6.146;2023-07-30T06:21:08;30.52;;;14.70;;
29908;SDS011;36247;51.952;6.146;2023-07-30T06:23:34;33.67;;;13.10;;
29908;SDS011;36247;51.952;6.146;2023-07-30T06:25:59;32.55;;;14.02;;
29908;SDS011;36247;51.952;6.146;2023-07-30T06:28:25;33.35;;;14.48;;
29908;SDS011;36247;51.952;6.146;2023-07-30T06:30:50;33.88;;;14.05;;
29908;SDS011;36247;51.952;6.146;2023-07-30T06:33:16;27.35;;;13.65;;
29908;SDS011;36247;51.952;6.146;2023-07-30T06:35:43;31.30;;;13.70;;
29908;SDS011;36247;51.952;6.146;2023-07-30T06:38:09;30.25;;;13.98;;
29908;SDS011;36247;51.952;6.146;2023-07-30T06:40:36;30.27;;;15.35;;
29908;SDS011;36247;51.952;6.146;2023-07-30T06:43:01;33.75;;;12.95;;
29908;SDS011;36247;51.952;6.146;2023-07-30T06:45:27;35.03;;;14.32;;
29908;SDS011;36247;51.952;6.146;2023-07-30T06:47:53;32.67;;;13.18;;
29908;SDS011;36247;51.952;6.146;2023-07-30T06:50:18;27.70;;;12.40;;
29908;SDS011;36247;51.952;6.146;2023-07-30T06:52:44;36.83;;;13.40;;
29908;SDS011;36247;51.952;6.146;2023-07-30T06:55:10;34.63;;;12.80;;
29908;SDS011;36247;51.952;6.146;2023-07-30T06:57:38;32.67;;;14.32;;
29908;SDS011;36247;51.952;6.146;2023-07-30T07:00:09;40.53;;;14.95;;
29908;SDS011;36247;51.952;6.146;2023-07-30T07:02:38;31.85;;;13.90;;
29908;SDS011;36247;51.952;6.146;2023-07-30T07:05:04;34.58;;;14.65;;
29908;SDS011;36247;51.952;6.146;2023-07-30T07:07:30;33.58;;;13.70;;
29908;SDS011;36247;51.952;6.146;2023-07-30T07:09:56;37.85;;;14.85;;
29908;SDS011;36247;51.952;6.146;2023-07-30T07:12:21;30.63;;;13.63;;
29908;SDS011;36247;51.952;6.146;2023-07-30T07:14:47;30.05;;;14.35;;
29908;SDS011;36247;51.952;6.146;2023-07-30T07:17:13;25.60;;;14.90;;
29908;SDS011;36247;51.952;6.146;2023-07-30T07:19:43;28.98;;;14.55;;
29908;SDS011;36247;51.952;6.146;2023-07-30T07:22:09;26.83;;;14.02;;
29908;SDS011;36247;51.952;6.146;2023-07-30T07:24:46;37.80;;;14.65;;
29908;SDS011;36247;51.952;6.146;2023-07-30T07:27:13;35.00;;;14.73;;
29908;SDS011;36247;51.952;6.146;2023-07-30T07:29:38;38.35;;;14.15;;
29908;SDS011;36247;51.952;6.146;2023-07-30T07:32:08;35.88;;;13.68;;
29908;SDS011;36247;51.952;6.146;2023-07-30T07:34:34;34.95;;;14.35;;
29908;SDS011;36247;51.952;6.146;2023-07-30T07:37:00;39.10;;;14.95;;
29908;SDS011;36247;51.952;6.146;2023-07-30T07:39:27;35.70;;;14.60;;
29908;SDS011;36247;51.952;6.146;2023-07-30T07:41:52;34.38;;;14.50;;
29908;SDS011;36247;51.952;6.146;2023-07-30T07:44:18;34.35;;;13.77;;
29908;SDS011;36247;51.952;6.146;2023-07-30T07:46:43;41.10;;;14.00;;
29908;SDS011;36247;51.952;6.146;2023-07-30T07:49:09;38.35;;;15.77;;
29908;SDS011;36247;51.952;6.146;2023-07-30T07:51:36;33.67;;;14.70;;
29908;SDS011;36247;51.952;6.146;2023-07-30T07:54:01;34.72;;;15.65;;
29908;SDS011;36247;51.952;6.146;2023-07-30T07:56:27;39.50;;;13.85;;
29908;SDS011;36247;51.952;6.146;2023-07-30T07:58:52;31.85;;;13.50;;
29908;SDS011;36247;51.952;6.146;2023-07-30T08:01:18;31.02;;;15.27;;
29908;SDS011;36247;51.952;6.146;2023-07-30T08:03:43;24.48;;;12.05;;
29908;SDS011;36247;51.952;6.146;2023-07-30T08:06:09;35.13;;;11.93;;
29908;SDS011;36247;51.952;6.146;2023-07-30T08:08:38;26.60;;;11.45;;
29908;SDS011;36247;51.952;6.146;2023-07-30T08:11:09;20.00;;;9.60;;
29908;SDS011;36247;51.952;6.146;2023-07-30T08:13:38;27.13;;;8.60;;
29908;SDS011;36247;51.952;6.146;2023-07-30T08:16:09;18.05;;;8.20;;
29908;SDS011;36247;51.952;6.146;2023-07-30T08:18:38;25.35;;;8.70;;
29908;SDS011;36247;51.952;6.146;2023-07-30T08:21:09;35.63;;;9.27;;
29908;SDS011;36247;51.952;6.146;2023-07-30T08:23:38;27.38;;;8.82;;
29908;SDS011;36247;51.952;6.146;2023-07-30T08:26:09;22.83;;;7.72;;
29908;SDS011;36247;51.952;6.146;2023-07-30T08:28:39;34.05;;;8.27;;
29908;SDS011;36247;51.952;6.146;2023-07-30T08:31:13;23.38;;;7.07;;
29908;SDS011;36247;51.952;6.146;2023-07-30T08:33:43;19.13;;;6.35;;
29908;SDS011;36247;51.952;6.146;2023-07-30T08:36:09;27.67;;;7.30;;
29908;SDS011;36247;51.952;6.146;2023-07-30T08:38:34;16.15;;;6.30;;
29908;SDS011;36247;51.952;6.146;2023-07-30T08:41:00;20.83;;;6.53;;
29908;SDS011;36247;51.952;6.146;2023-07-30T08:43:26;19.48;;;5.72;;
29908;SDS011;36247;51.952;6.146;2023-07-30T08:45:52;19.35;;;6.68;;
29908;SDS011;36247;51.952;6.146;2023-07-30T08:48:17;28.15;;;7.03;;
29908;SDS011;36247;51.952;6.146;2023-07-30T08:50:43;21.55;;;6.32;;
29908;SDS011;36247;51.952;6.146;2023-07-30T08:53:10;23.63;;;6.60;;
29908;SDS011;36247;51.952;6.146;2023-07-30T08:55:39;23.00;;;6.30;;
29908;SDS011;36247;51.952;6.146;2023-07-30T08:58:08;17.13;;;5.68;;
29908;SDS011;36247;51.952;6.146;2023-07-30T09:00:39;25.30;;;6.82;;
29908;SDS011;36247;51.952;6.146;2023-07-30T09:03:08;28.13;;;6.70;;
29908;SDS011;36247;51.952;6.146;2023-07-30T09:05:38;16.02;;;6.07;;
29908;SDS011;36247;51.952;6.146;2023-07-30T09:08:05;20.10;;;6.43;;
29908;SDS011;36247;51.952;6.146;2023-07-30T09:10:31;18.98;;;7.10;;
29908;SDS011;36247;51.952;6.146;2023-07-30T09:12:57;19.58;;;4.97;;
29908;SDS011;36247;51.952;6.146;2023-07-30T09:15:34;16.60;;;5.90;;
29908;SDS011;36247;51.952;6.146;2023-07-30T09:18:02;21.05;;;6.18;;
29908;SDS011;36247;51.952;6.146;2023-07-30T09:20:38;21.63;;;6.60;;
29908;SDS011;36247;51.952;6.146;2023-07-30T09:23:09;18.95;;;5.90;;
29908;SDS011;36247;51.952;6.146;2023-07-30T09:25:38;19.67;;;6.18;;
29908;SDS011;36247;51.952;6.146;2023-07-30T09:28:10;15.43;;;5.82;;
29908;SDS011;36247;51.952;6.146;2023-07-30T09:30:38;14.88;;;5.70;;
29908;SDS011;36247;51.952;6.146;2023-07-30T09:33:09;22.15;;;6.20;;
29908;SDS011;36247;51.952;6.146;2023-07-30T09:35:43;19.85;;;5.60;;
29908;SDS011;36247;51.952;6.146;2023-07-30T09:38:09;19.00;;;5.65;;
29908;SDS011;36247;51.952;6.146;2023-07-30T09:40:38;15.25;;;5.97;;
29908;SDS011;36247;51.952;6.146;2023-07-30T09:43:09;23.15;;;6.00;;
29908;SDS011;36247;51.952;6.146;2023-07-30T09:45:35;21.15;;;5.78;;
29908;SDS011;36247;51.952;6.146;2023-07-30T09:48:02;22.15;;;6.28;;
29908;SDS011;36247;51.952;6.146;2023-07-30T09:50:30;17.60;;;6.03;;
29908;SDS011;36247;51.952;6.146;2023-07-30T09:52:56;20.48;;;6.25;;
29908;SDS011;36247;51.952;6.146;2023-07-30T09:55:24;20.10;;;5.32;;
29908;SDS011;36247;51.952;6.146;2023-07-30T09:57:49;19.15;;;6.18;;
29908;SDS011;36247;51.952;6.146;2023-07-30T10:00:15;14.85;;;5.30;;
29908;SDS011;36247;51.952;6.146;2023-07-30T10:02:47;19.92;;;5.03;;
29908;SDS011;36247;51.952;6.146;2023-07-30T10:05:18;16.17;;;5.07;;
29908;SDS011;36247;51.952;6.146;2023-07-30T10:07:49;13.73;;;4.32;;
29908;SDS011;36247;51.952;6.146;2023-07-30T10:10:18;14.93;;;4.22;;
29908;SDS011;36247;51.952;6.146;2023-07-30T10:12:46;19.05;;;4.80;;
29908;SDS011;36247;51.952;6.146;2023-07-30T10:15:18;15.45;;;5.50;;
29908;SDS011;36247;51.952;6.146;2023-07-30T10:17:45;16.60;;;4.22;;
29908;SDS011;36247;51.952;6.146;2023-07-30T10:20:20;12.88;;;4.50;;
29908;SDS011;36247;51.952;6.146;2023-07-30T10:22:50;15.98;;;5.00;;
29908;SDS011;36247;51.952;6.146;2023-07-30T10:25:17;14.50;;;3.97;;
29908;SDS011;36247;51.952;6.146;2023-07-30T10:28:32;16.58;;;4.57;;
29908;SDS011;36247;51.952;6.146;2023-07-30T10:30:59;21.65;;;5.40;;
29908;SDS011;36247;51.952;6.146;2023-07-30T10:36:31;19.73;;;4.03;;
29908;SDS011;36247;51.952;6.146;2023-07-30T10:39:10;16.15;;;3.80;;
29908;SDS011;36247;51.952;6.146;2023-07-30T10:41:51;10.00;;;3.78;;
29908;SDS011;36247;51.952;6.146;2023-07-30T10:44:26;14.75;;;3.72;;
29908;SDS011;36247;51.952;6.146;2023-07-30T10:47:01;15.95;;;4.18;;
29908;SDS011;36247;51.952;6.146;2023-07-30T10:49:28;14.90;;;4.18;;
29908;SDS011;36247;51.952;6.146;2023-07-30T10:52:01;12.35;;;3.72;;
29908;SDS011;36247;51.952;6.146;2023-07-30T10:54:32;11.88;;;3.25;;
29908;SDS011;36247;51.952;6.146;2023-07-30T10:56:58;10.93;;;3.38;;
29908;SDS011;36247;51.952;6.146;2023-07-30T10:59:35;12.10;;;4.50;;
29908;SDS011;36247;51.952;6.146;2023-07-30T11:02:02;9.65;;;2.85;;
29908;SDS011;36247;51.952;6.146;2023-07-30T11:04:27;11.48;;;2.92;;
29908;SDS011;36247;51.952;6.146;2023-07-30T11:06:53;10.23;;;2.63;;
29908;SDS011;36247;51.952;6.146;2023-07-30T11:11:48;13.02;;;2.95;;
29908;SDS011;36247;51.952;6.146;2023-07-30T11:14:18;15.57;;;3.00;;
29908;SDS011;36247;51.952;6.146;2023-07-30T11:16:56;6.53;;;2.70;;
29908;SDS011;36247;51.952;6.146;2023-07-30T11:19:23;6.60;;;2.40;;
29908;SDS011;36247;51.952;6.146;2023-07-30T11:21:51;6.60;;;2.50;;
29908;SDS011;36247;51.952;6.146;2023-07-30T11:24:17;7.97;;;2.75;;
29908;SDS011;36247;51.952;6.146;2023-07-30T11:26:45;9.10;;;2.75;;
29908;SDS011;36247;51.952;6.146;2023-07-30T11:29:23;7.47;;;2.83;;
29908;SDS011;36247;51.952;6.146;2023-07-30T11:31:48;8.88;;;3.35;;
29908;SDS011;36247;51.952;6.146;2023-07-30T11:34:15;8.10;;;1.98;;
29908;SDS011;36247;51.952;6.146;2023-07-30T11:36:46;8.25;;;2.50;;
29908;SDS011;36247;51.952;6.146;2023-07-30T11:39:13;6.30;;;2.00;;
29908;SDS011;36247;51.952;6.146;2023-07-30T11:41:40;10.00;;;2.33;;
29908;SDS011;36247;51.952;6.146;2023-07-30T11:44:09;8.68;;;2.75;;
29908;SDS011;36247;51.952;6.146;2023-07-30T11:46:55;9.80;;;3.08;;
29908;SDS011;36247;51.952;6.146;2023-07-30T11:49:20;8.13;;;2.58;;
29908;SDS011;36247;51.952;6.146;2023-07-30T11:51:47;12.90;;;3.40;;
29908;SDS011;36247;51.952;6.146;2023-07-30T11:54:22;7.18;;;2.13;;
29908;SDS011;36247;51.952;6.146;2023-07-30T11:56:53;7.63;;;2.47;;
29908;SDS011;36247;51.952;6.146;2023-07-30T11:59:20;10.23;;;3.10;;
29908;SDS011;36247;51.952;6.146;2023-07-30T12:01:47;8.15;;;2.72;;
29908;SDS011;36247;51.952;6.146;2023-07-30T12:04:15;9.02;;;2.20;;
29908;SDS011;36247;51.952;6.146;2023-07-30T12:06:43;10.25;;;2.55;;
29908;SDS011;36247;51.952;6.146;2023-07-30T12:09:11;8.52;;;3.10;;
29908;SDS011;36247;51.952;6.146;2023-07-30T12:11:47;8.20;;;2.28;;
29908;SDS011;36247;51.952;6.146;2023-07-30T12:14:27;11.55;;;3.28;;
29908;SDS011;36247;51.952;6.146;2023-07-30T12:16:58;10.88;;;3.60;;
29908;SDS011;36247;51.952;6.146;2023-07-30T12:19:24;11.18;;;2.88;;
29908;SDS011;36247;51.952;6.146;2023-07-30T12:21:50;8.55;;;2.65;;
29908;SDS011;36247;51.952;6.146;2023-07-30T12:24:16;4.60;;;2.40;;
29908;SDS011;36247;51.952;6.146;2023-07-30T12:26:43;11.13;;;2.78;;
29908;SDS011;36247;51.952;6.146;2023-07-30T12:29:09;7.05;;;2.40;;
29908;SDS011;36247;51.952;6.146;2023-07-30T12:31:34;8.27;;;2.50;;
29908;SDS011;36247;51.952;6.146;2023-07-30T12:34:00;13.73;;;3.42;;
29908;SDS011;36247;51.952;6.146;2023-07-30T12:36:26;7.60;;;2.47;;
29908;SDS011;36247;51.952;6.146;2023-07-30T12:38:52;7.30;;;2.13;;
29908;SDS011;36247;51.952;6.146;2023-07-30T12:41:19;7.13;;;2.92;;
29908;SDS011;36247;51.952;6.146;2023-07-30T12:43:53;7.38;;;2.25;;
29908;SDS011;36247;51.952;6.146;2023-07-30T12:46:22;8.65;;;2.50;;
29908;SDS011;36247;51.952;6.146;2023-07-30T12:48:47;9.82;;;2.45;;
29908;SDS011;36247;51.952;6.146;2023-07-30T12:51:13;6.53;;;2.17;;
29908;SDS011;36247;51.952;6.146;2023-07-30T12:53:42;3.92;;;1.80;;
29908;SDS011;36247;51.952;6.146;2023-07-30T12:56:09;9.98;;;2.42;;
29908;SDS011;36247;51.952;6.146;2023-07-30T12:58:36;7.40;;;2.28;;
29908;SDS011;36247;51.952;6.146;2023-07-30T13:01:02;11.32;;;2.95;;
29908;SDS011;36247;51.952;6.146;2023-07-30T13:03:31;6.43;;;1.90;;
29908;SDS011;36247;51.952;6.146;2023-07-30T13:05:57;4.85;;;1.45;;
29908;SDS011;36247;51.952;6.146;2023-07-30T13:08:22;5.60;;;1.70;;
29908;SDS011;36247;51.952;6.146;2023-07-30T13:10:48;2.97;;;1.23;;
29908;SDS011;36247;51.952;6.146;2023-07-30T13:13:14;7.43;;;1.80;;
29908;SDS011;36247;51.952;6.146;2023-07-30T13:15:41;7.47;;;2.38;;
29908;SDS011;36247;51.952;6.146;2023-07-30T13:18:09;6.82;;;1.70;;
29908;SDS011;36247;51.952;6.146;2023-07-30T13:20:41;6.28;;;1.40;;
29908;SDS011;36247;51.952;6.146;2023-07-30T13:23:10;5.70;;;1.52;;
29908;SDS011;36247;51.952;6.146;2023-07-30T13:25:43;6.35;;;1.90;;
29908;SDS011;36247;51.952;6.146;2023-07-30T13:28:09;6.47;;;1.95;;
29908;SDS011;36247;51.952;6.146;2023-07-30T13:30:34;4.95;;;2.00;;
29908;SDS011;36247;51.952;6.146;2023-07-30T13:33:00;4.57;;;1.40;;
29908;SDS011;36247;51.952;6.146;2023-07-30T13:35:26;3.97;;;1.38;;
29908;SDS011;36247;51.952;6.146;2023-07-30T13:37:52;6.28;;;2.17;;
29908;SDS011;36247;51.952;6.146;2023-07-30T13:40:17;7.05;;;2.03;;
29908;SDS011;36247;51.952;6.146;2023-07-30T13:42:43;4.80;;;1.55;;
29908;SDS011;36247;51.952;6.146;2023-07-30T13:45:09;7.82;;;1.92;;
29908;SDS011;36247;51.952;6.146;2023-07-30T13:47:35;5.45;;;1.70;;
29908;SDS011;36247;51.952;6.146;2023-07-30T13:50:00;6.97;;;1.50;;
29908;SDS011;36247;51.952;6.146;2023-07-30T13:52:26;7.20;;;1.85;;
29908;SDS011;36247;51.952;6.146;2023-07-30T13:54:51;4.43;;;1.33;;
29908;SDS011;36247;51.952;6.146;2023-07-30T13:57:23;4.05;;;1.40;;
29908;SDS011;36247;51.952;6.146;2023-07-30T13:59:53;7.60;;;2.03;;
29908;SDS011;36247;51.952;6.146;2023-07-30T14:02:18;3.92;;;1.10;;
29908;SDS011;36247;51.952;6.146;2023-07-30T14:04:44;1.85;;;0.93;;
29908;SDS011;36247;51.952;6.146;2023-07-30T14:07:09;2.90;;;1.20;;
29908;SDS011;36247;51.952;6.146;2023-07-30T14:09:43;3.13;;;1.15;;
29908;SDS011;36247;51.952;6.146;2023-07-30T14:12:09;3.65;;;1.40;;
29908;SDS011;36247;51.952;6.146;2023-07-30T14:14:34;4.97;;;1.58;;
29908;SDS011;36247;51.952;6.146;2023-07-30T14:17:03;3.65;;;1.50;;
29908;SDS011;36247;51.952;6.146;2023-07-30T14:19:32;3.50;;;1.42;;
29908;SDS011;36247;51.952;6.146;2023-07-30T14:21:58;3.92;;;1.75;;
29908;SDS011;36247;51.952;6.146;2023-07-30T14:24:23;6.60;;;1.40;;
29908;SDS011;36247;51.952;6.146;2023-07-30T14:26:49;3.35;;;1.40;;
29908;SDS011;36247;51.952;6.146;2023-07-30T14:29:15;4.10;;;1.30;;
29908;SDS011;36247;51.952;6.146;2023-07-30T14:31:43;3.63;;;1.58;;
29908;SDS011;36247;51.952;6.146;2023-07-30T14:34:13;6.35;;;2.20;;
29908;SDS011;36247;51.952;6.146;2023-07-30T14:36:42;3.03;;;1.65;;
29908;SDS011;36247;51.952;6.146;2023-07-30T14:39:09;6.65;;;1.80;;
29908;SDS011;36247;51.952;6.146;2023-07-30T14:41:35;4.47;;;1.60;;